createdAt,value
2019-03-27T00:02:18.543Z,67.74
2019-03-27T00:04:49.865Z,68.09
2019-03-27T00:07:21.001Z,67.99
2019-03-27T00:09:51.962Z,67.93
2019-03-27T00:12:23.006Z,68.85
2019-03-27T00:14:54.155Z,67.70
2019-03-27T00:17:25.188Z,68.26
2019-03-27T00:19:56.233Z,68.62
2019-03-27T00:22:27.316Z,68.32
2019-03-27T00:24:58.519Z,68.40
2019-03-27T00:27:29.689Z,68.30
2019-03-27T00:30:00.812Z,68.80
2019-03-27T00:32:31.955Z,68.77
2019-03-27T00:35:03.077Z,68.54
2019-03-27T00:37:34.182Z,68.75
2019-03-27T00:40:05.742Z,68.52
2019-03-27T00:42:36.949Z,68.91
2019-03-27T00:45:09.278Z,68.81
2019-03-27T00:47:40.466Z,69.27
2019-03-27T00:50:11.968Z,69.57
2019-03-27T00:52:43.076Z,69.35
2019-03-27T00:55:15.995Z,69.40
2019-03-27T00:57:47.225Z,69.41
2019-03-27T01:00:28.096Z,69.21
2019-03-27T01:02:59.360Z,69.81
2019-03-27T01:05:30.490Z,69.82
2019-03-27T01:08:01.618Z,70.54
2019-03-27T01:10:32.785Z,69.73
2019-03-27T01:13:04.005Z,69.94
2019-03-27T01:15:40.147Z,70.60
2019-03-27T01:18:07.927Z,70.27
2019-03-27T01:20:39.089Z,69.70
2019-03-27T01:23:10.199Z,69.79
2019-03-27T01:25:41.287Z,70.47
2019-03-27T01:28:12.402Z,70.61
2019-03-27T01:30:43.528Z,71.11
2019-03-27T01:33:14.676Z,71.40
2019-03-27T01:35:45.700Z,70.98
2019-03-27T01:38:16.714Z,70.85
2019-03-27T01:40:47.851Z,70.86
2019-03-27T01:43:18.952Z,71.30
2019-03-27T01:45:53.194Z,71.30
2019-03-27T01:48:23.031Z,71.75
2019-03-27T01:50:54.244Z,71.10
2019-03-27T01:53:25.354Z,71.05
2019-03-27T01:55:59.335Z,71.38
2019-03-27T01:58:30.441Z,71.14
2019-03-27T02:01:01.846Z,71.90
2019-03-27T02:03:32.947Z,71.11
2019-03-27T02:06:04.064Z,71.80
2019-03-27T02:08:35.162Z,71.35
2019-03-27T02:11:06.361Z,71.75
2019-03-27T02:13:37.580Z,72.58
2019-03-27T02:16:08.692Z,72.14
2019-03-27T02:18:39.731Z,72.78
2019-03-27T02:21:10.942Z,72.82
2019-03-27T02:23:42.143Z,73.43
2019-03-27T02:26:13.276Z,73.47
2019-03-27T02:28:44.402Z,73.10
2019-03-27T02:31:15.698Z,73.16
2019-03-27T02:33:46.879Z,73.15
2019-03-27T02:36:17.934Z,73.36
2019-03-27T02:38:49.127Z,73.58
2019-03-27T02:41:20.228Z,73.86
2019-03-27T02:43:51.248Z,73.71
2019-03-27T02:46:24.895Z,73.51
2019-03-27T02:48:55.241Z,73.56
2019-03-27T02:51:26.314Z,74.00
2019-03-27T02:53:57.343Z,73.38
2019-03-27T02:56:28.590Z,73.32
2019-03-27T02:58:59.677Z,73.92
2019-03-27T03:01:31.728Z,73.73
2019-03-27T03:04:02.855Z,74.82
2019-03-27T03:06:33.924Z,74.70
2019-03-27T03:09:06.419Z,74.54
2019-03-27T03:11:37.641Z,74.14
2019-03-27T03:14:08.826Z,74.15
2019-03-27T03:16:42.780Z,74.09
2019-03-27T03:19:12.807Z,73.79
2019-03-27T03:21:44.022Z,74.25
2019-03-27T03:24:15.197Z,74.51
2019-03-27T03:26:50.630Z,74.12
2019-03-27T03:29:19.171Z,74.20
2019-03-27T03:31:50.153Z,74.65
2019-03-27T03:34:21.290Z,75.04
2019-03-27T03:36:52.522Z,75.20
2019-03-27T03:39:26.659Z,75.24
2019-03-27T03:41:57.782Z,75.67
2019-03-27T03:44:29.068Z,75.58
2019-03-27T03:47:00.714Z,76.05
2019-03-27T03:49:31.874Z,75.60
2019-03-27T03:52:04.001Z,76.30
2019-03-27T03:54:35.175Z,76.13
2019-03-27T03:57:07.139Z,76.10
2019-03-27T03:59:40.255Z,76.20
2019-03-27T04:02:12.388Z,75.74
2019-03-27T04:04:45.797Z,75.96
2019-03-27T04:07:16.851Z,76.01
2019-03-27T04:09:47.877Z,76.41
2019-03-27T04:12:19.079Z,76.13
2019-03-27T04:14:50.028Z,76.46
2019-03-27T04:17:21.144Z,76.73
2019-03-27T04:19:52.268Z,76.94
2019-03-27T04:22:23.371Z,77.30
2019-03-27T04:24:54.368Z,76.98
2019-03-27T04:27:25.525Z,76.87
2019-03-27T04:29:56.608Z,76.83
2019-03-27T04:32:27.723Z,76.92
2019-03-27T04:34:58.737Z,77.30
2019-03-27T04:37:30.006Z,77.42
2019-03-27T04:40:01.275Z,77.59
2019-03-27T04:42:32.436Z,77.22
2019-03-27T04:45:03.511Z,77.70
2019-03-27T04:47:34.541Z,77.78
2019-03-27T04:50:06.396Z,77.50
2019-03-27T04:52:37.540Z,77.79
2019-03-27T04:55:09.195Z,77.79
2019-03-27T04:57:40.194Z,77.51
2019-03-27T05:00:12.096Z,77.43
2019-03-27T05:02:43.241Z,77.47
2019-03-27T05:05:15.064Z,77.44
2019-03-27T05:07:46.113Z,77.45
2019-03-27T05:10:17.330Z,77.70
2019-03-27T05:12:50.240Z,77.42
2019-03-27T05:15:21.445Z,77.43
2019-03-27T05:17:52.538Z,77.68
2019-03-27T05:20:23.728Z,78.09
2019-03-27T05:22:54.712Z,77.90
2019-03-27T05:25:25.761Z,78.16
2019-03-27T05:27:56.844Z,78.19
2019-03-27T05:30:30.561Z,78.36
2019-03-27T05:33:02.167Z,78.11
2019-03-27T05:35:33.344Z,78.56
2019-03-27T05:38:04.450Z,78.40
2019-03-27T05:40:35.674Z,78.08
2019-03-27T05:43:06.862Z,78.22
2019-03-27T05:45:38.193Z,78.65
2019-03-27T05:48:09.412Z,78.44
2019-03-27T05:50:40.472Z,78.42
2019-03-27T05:53:11.528Z,78.15
2019-03-27T05:55:42.729Z,78.35
2019-03-27T05:58:13.768Z,78.05
2019-03-27T06:00:45.080Z,78.32
2019-03-27T06:03:16.216Z,77.88
2019-03-27T06:05:47.364Z,77.72
2019-03-27T06:08:18.550Z,78.26
2019-03-27T06:10:49.823Z,78.06
2019-03-27T06:13:20.968Z,77.86
2019-03-27T06:15:52.092Z,77.60
2019-03-27T06:18:23.882Z,77.54
2019-03-27T06:20:55.440Z,77.51
2019-03-27T06:23:26.526Z,77.10
2019-03-27T06:25:57.886Z,77.28
2019-03-27T06:28:30.930Z,76.87
2019-03-27T06:31:01.868Z,76.32
2019-03-27T06:33:32.887Z,76.97
2019-03-27T06:36:04.190Z,76.52
2019-03-27T06:38:35.354Z,76.49
2019-03-27T06:41:06.550Z,76.52
2019-03-27T06:43:37.787Z,75.79
2019-03-27T06:46:08.969Z,75.41
2019-03-27T06:48:40.129Z,76.23
2019-03-27T06:51:11.427Z,76.78
2019-03-27T06:53:42.469Z,76.33
2019-03-27T06:56:13.645Z,75.18
2019-03-27T06:58:54.408Z,76.07
2019-03-27T07:01:17.360Z,75.10
2019-03-27T07:03:48.533Z,73.39
2019-03-27T07:06:19.669Z,73.10
2019-03-27T07:08:50.712Z,74.08
2019-03-27T07:11:21.953Z,74.07
2019-03-27T07:13:52.926Z,74.61
2019-03-27T07:16:24.141Z,73.72
2019-03-27T07:18:55.267Z,72.46
2019-03-27T07:21:26.471Z,74.30
2019-03-27T07:23:57.559Z,72.92
2019-03-27T07:26:28.620Z,73.54
2019-03-27T07:28:59.826Z,73.32
2019-03-27T07:31:31.029Z,73.25
2019-03-27T07:34:02.328Z,74.10
2019-03-27T07:36:33.440Z,72.45
2019-03-27T07:39:11.316Z,73.39
2019-03-27T07:41:38.826Z,72.83
2019-03-27T07:44:09.984Z,72.45
2019-03-27T07:46:41.240Z,72.31
2019-03-27T07:49:12.219Z,72.70
2019-03-27T07:51:43.258Z,72.62
2019-03-27T07:54:14.363Z,71.36
2019-03-27T07:56:45.602Z,71.06
2019-03-27T07:59:16.583Z,71.74
2019-03-27T08:01:47.813Z,72.54
2019-03-27T08:04:18.957Z,71.92
2019-03-27T08:06:50.371Z,71.46
2019-03-27T08:09:23.045Z,71.29
2019-03-27T08:11:54.294Z,71.60
2019-03-27T08:14:25.439Z,72.35
2019-03-27T08:16:56.602Z,72.49
2019-03-27T08:19:27.792Z,72.47
2019-03-27T08:21:58.873Z,71.74
2019-03-27T08:24:30.062Z,71.91
2019-03-27T08:27:01.240Z,71.96
2019-03-27T08:29:32.276Z,70.94
2019-03-27T08:32:03.435Z,70.15
2019-03-27T08:34:34.594Z,70.84
2019-03-27T08:37:05.849Z,71.07
2019-03-27T08:39:36.873Z,70.42
2019-03-27T08:42:07.942Z,69.82
2019-03-27T08:44:39.145Z,69.57
2019-03-27T08:47:10.255Z,69.57
2019-03-27T08:49:41.356Z,69.63
2019-03-27T08:52:12.672Z,69.42
2019-03-27T08:54:43.749Z,68.43
2019-03-27T08:57:14.873Z,67.26
2019-03-27T08:59:46.062Z,66.23
2019-03-27T09:02:17.323Z,65.60
2019-03-27T09:04:48.513Z,66.10
2019-03-27T09:07:19.688Z,66.18
2019-03-27T09:09:50.800Z,66.23
2019-03-27T09:12:22.021Z,66.64
2019-03-27T09:14:52.983Z,66.59
2019-03-27T09:17:24.228Z,66.03
2019-03-27T09:19:55.397Z,65.54
2019-03-27T09:22:26.539Z,63.95
2019-03-27T09:24:57.578Z,64.69
2019-03-27T09:27:28.850Z,65.84
2019-03-27T09:30:00.202Z,65.93
2019-03-27T09:32:31.481Z,64.51
2019-03-27T09:35:02.628Z,62.50
2019-03-27T09:37:33.927Z,61.42
2019-03-27T09:40:05.349Z,61.86
2019-03-27T09:42:36.476Z,61.23
2019-03-27T09:45:08.955Z,63.88
2019-03-27T09:47:40.172Z,60.81
2019-03-27T09:50:11.932Z,62.55
2019-03-27T09:52:43.182Z,62.61
2019-03-27T09:55:16.317Z,63.63
2019-03-27T09:57:47.484Z,64.76
2019-03-27T10:00:29.795Z,65.21
2019-03-27T10:03:02.125Z,64.94
2019-03-27T10:05:33.093Z,65.46
2019-03-27T10:08:04.352Z,62.75
2019-03-27T10:10:35.473Z,61.59
2019-03-27T10:13:06.844Z,62.17
2019-03-27T10:15:38.161Z,63.36
2019-03-27T10:18:09.395Z,63.61
2019-03-27T10:20:40.689Z,61.52
2019-03-27T10:23:12.014Z,59.80
2019-03-27T10:25:43.342Z,59.09
2019-03-27T10:28:14.510Z,59.84
2019-03-27T10:30:45.707Z,58.86
2019-03-27T10:33:16.936Z,57.28
2019-03-27T10:35:48.237Z,57.58
2019-03-27T10:38:19.549Z,57.23
2019-03-27T10:40:50.690Z,55.63
2019-03-27T10:43:21.979Z,54.95
2019-03-27T10:45:53.364Z,54.67
2019-03-27T10:48:24.637Z,54.53
2019-03-27T10:50:55.871Z,53.62
2019-03-27T10:53:27.032Z,53.45
2019-03-27T10:55:58.214Z,53.48
2019-03-27T10:58:29.418Z,54.89
2019-03-27T11:01:00.732Z,54.90
2019-03-27T11:03:31.873Z,54.67
2019-03-27T11:06:03.159Z,54.39
2019-03-27T11:08:34.414Z,56.04
2019-03-27T11:11:05.981Z,54.87
2019-03-27T11:13:37.149Z,55.63
2019-03-27T11:16:08.594Z,55.28
2019-03-27T11:18:39.839Z,55.09
2019-03-27T11:21:10.987Z,54.93
2019-03-27T11:23:42.195Z,54.50
2019-03-27T11:26:13.536Z,55.93
2019-03-27T11:28:44.675Z,56.71
2019-03-27T11:31:15.860Z,55.14
2019-03-27T11:33:47.181Z,54.83
2019-03-27T11:36:18.478Z,55.19
2019-03-27T11:38:49.610Z,54.51
2019-03-27T11:41:21.481Z,52.51
2019-03-27T11:43:55.097Z,51.63
2019-03-27T11:46:25.488Z,52.25
2019-03-27T11:48:56.730Z,51.51
2019-03-27T11:51:27.942Z,53.59
2019-03-27T11:53:59.013Z,53.19
2019-03-27T11:56:30.211Z,51.33
2019-03-27T11:59:01.622Z,53.86
2019-03-27T12:01:39.620Z,54.27
2019-03-27T12:04:06.003Z,54.38
2019-03-27T12:06:37.298Z,55.17
2019-03-27T12:09:09.478Z,55.53
2019-03-27T12:11:40.581Z,56.25
2019-03-27T12:14:12.457Z,55.22
2019-03-27T12:16:43.585Z,55.30
2019-03-27T12:19:14.742Z,56.06
2019-03-27T12:21:45.886Z,56.97
2019-03-27T12:24:17.160Z,56.35
2019-03-27T12:26:48.261Z,55.20
2019-03-27T12:29:19.473Z,55.47
2019-03-27T12:31:50.613Z,54.15
2019-03-27T12:34:22.049Z,54.10
2019-03-27T12:36:53.276Z,53.03
2019-03-27T12:39:24.727Z,52.27
2019-03-27T12:41:55.892Z,52.70
2019-03-27T12:44:26.895Z,51.08
2019-03-27T12:46:58.174Z,50.61
2019-03-27T12:49:29.506Z,51.81
2019-03-27T12:52:00.968Z,52.84
2019-03-27T12:54:32.310Z,52.25
2019-03-27T12:57:03.393Z,52.41
2019-03-27T12:59:34.637Z,51.08
2019-03-27T13:02:06.787Z,51.05
2019-03-27T13:04:37.904Z,49.81
2019-03-27T13:07:09.118Z,49.50
2019-03-27T13:09:40.189Z,49.13
2019-03-27T13:12:11.503Z,48.71
2019-03-27T13:14:42.714Z,49.61
2019-03-27T13:17:14.086Z,49.29
2019-03-27T13:19:45.183Z,47.17
2019-03-27T13:22:16.178Z,46.81
2019-03-27T13:24:47.381Z,47.02
2019-03-27T13:27:18.522Z,48.77
2019-03-27T13:29:49.773Z,48.81
2019-03-27T13:32:20.998Z,49.17
2019-03-27T13:34:52.349Z,48.80
2019-03-27T13:37:23.760Z,47.99
2019-03-27T13:39:54.821Z,48.31
2019-03-27T13:42:26.239Z,48.48
2019-03-27T13:44:57.747Z,48.96
2019-03-27T13:47:28.860Z,48.47
2019-03-27T13:50:00.148Z,48.75
2019-03-27T13:52:31.370Z,48.39
2019-03-27T13:55:02.425Z,49.11
2019-03-27T13:57:33.718Z,49.08
2019-03-27T14:00:08.846Z,49.45
2019-03-27T14:02:40.170Z,49.72
2019-03-27T14:05:11.685Z,50.54
2019-03-27T14:07:42.909Z,50.29
2019-03-27T14:10:14.454Z,49.15
2019-03-27T14:12:45.694Z,48.67
2019-03-27T14:15:17.696Z,47.90
2019-03-27T14:17:50.029Z,48.24
2019-03-27T14:20:22.349Z,48.49
2019-03-27T14:22:54.543Z,47.82
2019-03-27T14:25:27.602Z,48.79
2019-03-27T14:27:59.134Z,49.15
2019-03-27T14:30:57.943Z,49.59
2019-03-27T14:33:29.219Z,49.86
2019-03-27T14:36:00.472Z,50.90
2019-03-27T14:38:31.705Z,50.65
2019-03-27T14:41:02.952Z,50.50
2019-03-27T14:43:34.220Z,50.76
2019-03-27T14:46:05.537Z,50.48
2019-03-27T14:48:36.694Z,50.32
2019-03-27T14:51:07.975Z,49.74
2019-03-27T14:53:39.175Z,48.53
2019-03-27T14:56:10.479Z,47.87
2019-03-27T14:58:41.474Z,47.70
2019-03-27T15:01:12.635Z,46.21
2019-03-27T15:03:43.843Z,46.24
2019-03-27T15:06:14.992Z,46.40
2019-03-27T15:08:46.030Z,45.77
2019-03-27T15:11:17.251Z,45.09
2019-03-27T15:13:48.369Z,44.75
2019-03-27T15:16:19.592Z,45.94
2019-03-27T15:18:52.553Z,45.00
2019-03-27T15:21:24.014Z,45.97
2019-03-27T15:23:55.250Z,46.87
2019-03-27T15:26:26.649Z,47.15
2019-03-27T15:28:57.916Z,47.53
2019-03-27T15:31:29.558Z,47.92
2019-03-27T15:34:00.751Z,48.11
2019-03-27T15:36:31.982Z,48.57
2019-03-27T15:39:04.793Z,47.73
2019-03-27T15:41:35.975Z,48.16
2019-03-27T15:44:07.221Z,49.14
2019-03-27T15:46:38.424Z,48.85
2019-03-27T15:49:09.508Z,48.70
2019-03-27T15:51:40.796Z,48.30
2019-03-27T15:54:11.971Z,49.41
2019-03-27T15:56:43.285Z,48.61
2019-03-27T15:59:14.430Z,48.31
2019-03-27T16:01:45.730Z,48.03
2019-03-27T16:04:16.905Z,47.18
2019-03-27T16:06:48.180Z,47.68
2019-03-27T16:09:20.802Z,47.83
2019-03-27T16:11:51.882Z,47.37
2019-03-27T16:14:23.195Z,47.16
2019-03-27T16:17:12.076Z,47.00
2019-03-27T16:19:29.039Z,47.70
2019-03-27T16:22:00.329Z,47.35
2019-03-27T16:24:31.690Z,47.15
2019-03-27T16:27:04.662Z,48.26
2019-03-27T16:29:35.939Z,48.70
2019-03-27T16:32:07.567Z,49.25
2019-03-27T16:34:39.024Z,48.88
2019-03-27T16:37:10.296Z,49.12
2019-03-27T16:39:41.495Z,49.48
2019-03-27T16:42:12.953Z,49.13
2019-03-27T16:44:44.408Z,49.43
2019-03-27T16:47:15.691Z,49.80
2019-03-27T16:49:46.965Z,49.99
2019-03-27T16:52:18.358Z,49.74
2019-03-27T16:54:49.700Z,49.57
2019-03-27T16:57:20.953Z,49.48
2019-03-27T16:59:52.202Z,49.75
2019-03-27T17:02:23.463Z,49.60
2019-03-27T17:04:54.699Z,49.72
2019-03-27T17:07:25.882Z,49.81
2019-03-27T17:09:57.035Z,50.07
2019-03-27T17:12:31.345Z,50.07
2019-03-27T17:15:01.490Z,50.45
2019-03-27T17:17:34.105Z,50.79
2019-03-27T17:20:06.542Z,50.89
2019-03-27T17:22:37.833Z,50.10
2019-03-27T17:25:09.925Z,49.82
2019-03-27T17:27:41.196Z,50.27
2019-03-27T17:30:13.299Z,50.53
2019-03-27T17:32:44.592Z,51.17
2019-03-27T17:35:15.782Z,52.07
2019-03-27T17:37:47.099Z,51.78
2019-03-27T17:40:18.479Z,52.24
2019-03-27T17:42:49.835Z,52.41
2019-03-27T17:45:21.059Z,52.46
2019-03-27T17:47:52.254Z,52.33
2019-03-27T17:50:23.562Z,52.56
2019-03-27T17:52:54.733Z,52.54
2019-03-27T17:55:26.010Z,52.98
2019-03-27T17:57:57.247Z,53.75
2019-03-27T18:00:56.183Z,54.18
2019-03-27T18:03:27.467Z,54.30
2019-03-27T18:05:58.730Z,54.78
2019-03-27T18:08:30.249Z,55.38
2019-03-27T18:11:01.613Z,55.43
2019-03-27T18:13:33.000Z,55.61
2019-03-27T18:16:04.184Z,55.75
2019-03-27T18:18:35.629Z,55.55
2019-03-27T18:21:06.977Z,55.69
2019-03-27T18:23:45.689Z,55.21
2019-03-27T18:26:11.165Z,55.43
2019-03-27T18:28:43.837Z,55.43
2019-03-27T18:31:15.059Z,55.50
2019-03-27T18:33:46.373Z,55.79
2019-03-27T18:36:17.665Z,55.72
2019-03-27T18:38:48.911Z,56.35
2019-03-27T18:41:20.260Z,56.66
2019-03-27T18:43:51.580Z,56.96
2019-03-27T18:46:22.956Z,56.73
2019-03-27T18:48:54.108Z,56.99
2019-03-27T18:51:25.315Z,57.12
2019-03-27T18:53:59.825Z,57.00
2019-03-27T18:56:29.845Z,57.19
2019-03-27T18:59:01.036Z,57.91
2019-03-27T19:01:32.414Z,57.75
2019-03-27T19:04:03.770Z,57.65
2019-03-27T19:06:35.055Z,57.92
2019-03-27T19:09:09.138Z,58.53
2019-03-27T19:11:40.932Z,58.88
2019-03-27T19:14:12.480Z,58.69
2019-03-27T19:16:43.855Z,59.31
2019-03-27T19:19:15.093Z,59.30
2019-03-27T19:21:46.447Z,59.49
2019-03-27T19:24:17.523Z,59.73
2019-03-27T19:26:48.918Z,60.12
2019-03-27T19:29:20.052Z,60.18
2019-03-27T19:31:51.387Z,60.55
2019-03-27T19:34:22.632Z,60.82
2019-03-27T19:36:53.923Z,60.59
2019-03-27T19:39:26.159Z,60.72
2019-03-27T19:41:57.332Z,60.71
2019-03-27T19:44:28.806Z,60.72
2019-03-27T19:47:00.058Z,60.95
2019-03-27T19:49:31.478Z,60.97
2019-03-27T19:52:02.949Z,61.34
2019-03-27T19:54:34.061Z,61.98
2019-03-27T19:57:05.286Z,63.27
2019-03-27T19:59:36.667Z,63.77
2019-03-27T20:02:08.013Z,64.24
2019-03-27T20:04:40.850Z,64.81
2019-03-27T20:07:11.961Z,65.22
2019-03-27T20:09:43.524Z,64.52
2019-03-27T20:12:14.892Z,65.06
2019-03-27T20:14:46.249Z,65.46
2019-03-27T20:17:17.476Z,65.85
2019-03-27T20:19:48.670Z,66.22
2019-03-27T20:22:20.052Z,66.46
2019-03-27T20:24:51.318Z,66.81
2019-03-27T20:27:22.552Z,67.32
2019-03-27T20:29:53.672Z,66.99
2019-03-27T20:32:27.380Z,67.48
2019-03-27T20:34:58.644Z,67.34
2019-03-27T20:37:30.012Z,67.46
2019-03-27T20:40:01.373Z,68.31
2019-03-27T20:42:32.485Z,68.84
2019-03-27T20:45:03.982Z,69.58
2019-03-27T20:47:35.066Z,70.14
2019-03-27T20:50:07.276Z,70.61
2019-03-27T20:52:38.341Z,70.66
2019-03-27T20:55:09.876Z,71.53
2019-03-27T20:57:41.097Z,71.96
2019-03-27T21:03:22.856Z,73.32
2019-03-27T21:05:54.553Z,72.42
2019-03-27T21:08:25.897Z,72.60
2019-03-27T21:10:57.168Z,73.20
2019-03-27T21:13:28.426Z,72.77
2019-03-27T21:16:00.186Z,73.52
2019-03-27T21:18:31.347Z,74.06
2019-03-27T21:21:03.005Z,74.23
2019-03-27T21:23:34.268Z,74.58
2019-03-27T21:26:05.541Z,74.86
2019-03-27T21:28:36.808Z,75.01
2019-03-27T21:31:08.012Z,75.00
2019-03-27T21:33:39.325Z,74.91
2019-03-27T21:36:10.359Z,75.84
2019-03-27T21:38:41.936Z,75.68
2019-03-27T21:41:13.464Z,76.35
2019-03-27T21:43:45.999Z,76.42
2019-03-27T21:46:17.252Z,76.44
2019-03-27T21:48:49.187Z,76.51
2019-03-27T21:51:20.360Z,76.90
2019-03-27T21:53:51.610Z,78.02
2019-03-27T21:56:23.993Z,77.17
2019-03-27T21:58:55.277Z,76.93
2019-03-27T22:01:26.647Z,76.54
2019-03-27T22:03:57.743Z,76.60
2019-03-27T22:06:28.877Z,76.77
2019-03-27T22:08:59.913Z,77.05
2019-03-27T22:11:31.160Z,77.59
2019-03-27T22:14:02.354Z,78.00
2019-03-27T22:16:33.452Z,78.84
2019-03-27T22:19:04.719Z,79.34
2019-03-27T22:21:36.170Z,79.52
2019-03-27T22:24:07.419Z,78.95
2019-03-27T22:26:38.511Z,78.95
2019-03-27T22:29:09.774Z,79.12
2019-03-27T22:31:41.072Z,78.82
2019-03-27T22:34:12.284Z,78.78
2019-03-27T22:36:43.350Z,78.75
2019-03-27T22:39:14.463Z,79.70
2019-03-27T22:41:45.469Z,80.42
2019-03-27T22:44:16.680Z,80.04
2019-03-27T22:46:47.889Z,79.98
2019-03-27T22:49:18.743Z,79.67
2019-03-27T22:51:49.902Z,79.76
2019-03-27T22:54:21.109Z,80.18
2019-03-27T22:56:52.205Z,80.74
2019-03-27T22:59:23.307Z,81.13
2019-03-27T23:01:54.478Z,82.29
2019-03-27T23:04:25.729Z,81.61
2019-03-27T23:06:56.975Z,81.20
2019-03-27T23:09:28.216Z,81.86
2019-03-27T23:11:59.412Z,81.78
2019-03-27T23:14:30.444Z,81.81
2019-03-27T23:17:01.620Z,82.21
2019-03-27T23:19:32.800Z,82.37
2019-03-27T23:22:03.864Z,82.09
2019-03-27T23:24:35.108Z,82.90
2019-03-27T23:27:06.358Z,83.08
2019-03-27T23:29:37.412Z,83.60
2019-03-27T23:32:08.584Z,83.93
2019-03-27T23:34:39.710Z,83.08
2019-03-27T23:37:10.913Z,83.66
2019-03-27T23:39:41.952Z,83.29
2019-03-27T23:42:12.944Z,84.07
2019-03-27T23:44:44.154Z,84.62
2019-03-27T23:47:15.445Z,85.29
2019-03-27T23:49:46.549Z,85.27
2019-03-27T23:52:17.670Z,84.88
2019-03-27T23:54:48.802Z,84.54
2019-03-27T23:57:19.935Z,84.36
2019-03-27T23:59:51.081Z,85.03
